sensor_id;sensor_type;location;lat;lon;timestamp;pressure;altitude;pressure_sealevel;temperature;humidity
9899;BME280;4988;49.238;6.698;2023-09-07T00:01:31;99371.84;;;17.09;95.00
9899;BME280;4988;49.238;6.698;2023-09-07T00:03:57;99366.34;;;16.97;96.01
9899;BME280;4988;49.238;6.698;2023-09-07T00:06:22;99375.72;;;17.04;95.41
9899;BME280;4988;49.238;6.698;2023-09-07T00:08:47;99366.97;;;16.88;95.26
9899;BME280;4988;49.238;6.698;2023-09-07T00:11:13;99362.19;;;16.79;96.71
9899;BME280;4988;49.238;6.698;2023-09-07T00:13:38;99358.53;;;16.80;96.03
9899;BME280;4988;49.238;6.698;2023-09-07T00:16:04;99359.56;;;16.92;95.46
9899;BME280;4988;49.238;6.698;2023-09-07T00:18:31;99357.88;;;16.63;96.73
9899;BME280;4988;49.238;6.698;2023-09-07T00:20:56;99363.38;;;16.62;96.48
9899;BME280;4988;49.238;6.698;2023-09-07T00:23:21;99362.72;;;16.71;96.51
9899;BME280;4988;49.238;6.698;2023-09-07T00:25:47;99356.34;;;16.59;96.34
9899;BME280;4988;49.238;6.698;2023-09-07T00:28:12;99365.19;;;16.61;96.64
9899;BME280;4988;49.238;6.698;2023-09-07T00:30:37;99360.88;;;16.71;96.09
9899;BME280;4988;49.238;6.698;2023-09-07T00:33:03;99363.38;;;16.62;95.84
9899;BME280;4988;49.238;6.698;2023-09-07T00:35:29;99363.44;;;16.60;96.70
9899;BME280;4988;49.238;6.698;2023-09-07T00:37:54;99361.53;;;16.62;96.22
9899;BME280;4988;49.238;6.698;2023-09-07T00:40:20;99364.31;;;16.61;96.56
9899;BME280;4988;49.238;6.698;2023-09-07T00:42:45;99352.28;;;16.66;96.05
9899;BME280;4988;49.238;6.698;2023-09-07T00:45:10;99361.22;;;16.67;96.30
9899;BME280;4988;49.238;6.698;2023-09-07T00:47:36;99350.38;;;16.81;93.85
9899;BME280;4988;49.238;6.698;2023-09-07T00:50:02;99351.19;;;16.69;93.66
9899;BME280;4988;49.238;6.698;2023-09-07T00:52:29;99356.81;;;16.66;94.43
9899;BME280;4988;49.238;6.698;2023-09-07T00:54:55;99358.63;;;16.65;94.48
9899;BME280;4988;49.238;6.698;2023-09-07T00:57:20;99347.53;;;16.57;96.06
9899;BME280;4988;49.238;6.698;2023-09-07T00:59:46;99356.16;;;16.62;94.53
9899;BME280;4988;49.238;6.698;2023-09-07T01:02:11;99356.34;;;16.59;93.77
9899;BME280;4988;49.238;6.698;2023-09-07T01:04:36;99360.44;;;16.52;94.88
9899;BME280;4988;49.238;6.698;2023-09-07T01:07:08;99352.25;;;16.53;94.97
9899;BME280;4988;49.238;6.698;2023-09-07T01:09:36;99356.88;;;16.51;94.74
9899;BME280;4988;49.238;6.698;2023-09-07T01:12:04;99356.44;;;16.45;95.48
9899;BME280;4988;49.238;6.698;2023-09-07T01:14:29;99350.09;;;16.46;95.03
9899;BME280;4988;49.238;6.698;2023-09-07T01:16:55;99352.03;;;16.44;95.79
9899;BME280;4988;49.238;6.698;2023-09-07T01:19:20;99350.59;;;16.38;96.55
9899;BME280;4988;49.238;6.698;2023-09-07T01:21:45;99356.84;;;16.38;97.07
9899;BME280;4988;49.238;6.698;2023-09-07T01:24:11;99352.03;;;16.44;95.00
9899;BME280;4988;49.238;6.698;2023-09-07T01:26:39;99352.03;;;16.44;95.19
9899;BME280;4988;49.238;6.698;2023-09-07T01:29:05;99355.78;;;16.41;94.66
9899;BME280;4988;49.238;6.698;2023-09-07T01:31:37;99348.38;;;16.45;94.00
9899;BME280;4988;49.238;6.698;2023-09-07T01:34:03;99344.06;;;16.42;93.64
9899;BME280;4988;49.238;6.698;2023-09-07T01:36:29;99340.63;;;16.40;94.59
9899;BME280;4988;49.238;6.698;2023-09-07T01:38:55;99339.72;;;16.39;94.75
9899;BME280;4988;49.238;6.698;2023-09-07T01:41:20;99336.50;;;16.34;93.76
9899;BME280;4988;49.238;6.698;2023-09-07T01:43:45;99335.19;;;16.27;94.39
9899;BME280;4988;49.238;6.698;2023-09-07T01:46:11;99334.44;;;16.25;94.37
9899;BME280;4988;49.238;6.698;2023-09-07T01:48:36;99341.63;;;16.24;94.49
9899;BME280;4988;49.238;6.698;2023-09-07T01:51:01;99335.81;;;16.18;95.26
9899;BME280;4988;49.238;6.698;2023-09-07T01:53:26;99337.06;;;16.12;94.91
9899;BME280;4988;49.238;6.698;2023-09-07T01:55:54;99342.00;;;16.05;96.10
9899;BME280;4988;49.238;6.698;2023-09-07T01:58:20;99348.88;;;16.10;95.97
9899;BME280;4988;49.238;6.698;2023-09-07T02:00:46;99343.06;;;16.03;96.43
9899;BME280;4988;49.238;6.698;2023-09-07T02:03:11;99332.97;;;16.06;95.60
9899;BME280;4988;49.238;6.698;2023-09-07T02:05:36;99337.78;;;16.01;97.29
9899;BME280;4988;49.238;6.698;2023-09-07T02:08:02;99338.53;;;16.03;96.82
9899;BME280;4988;49.238;6.698;2023-09-07T02:10:27;99335.19;;;16.00;96.91
9899;BME280;4988;49.238;6.698;2023-09-07T02:12:52;99338.94;;;15.97;96.51
9899;BME280;4988;49.238;6.698;2023-09-07T02:15:18;99341.19;;;15.90;95.67
9899;BME280;4988;49.238;6.698;2023-09-07T02:17:43;99327.66;;;15.77;94.71
9899;BME280;4988;49.238;6.698;2023-09-07T02:20:11;99343.88;;;15.62;95.34
9899;BME280;4988;49.238;6.698;2023-09-07T02:22:37;99338.63;;;15.46;95.14
9899;BME280;4988;49.238;6.698;2023-09-07T02:25:02;99336.81;;;15.32;95.17
9899;BME280;4988;49.238;6.698;2023-09-07T02:27:28;99332.69;;;15.26;96.05
9899;BME280;4988;49.238;6.698;2023-09-07T02:29:53;99331.44;;;15.17;96.23
9899;BME280;4988;49.238;6.698;2023-09-07T02:32:19;99343.44;;;15.11;95.43
9899;BME280;4988;49.238;6.698;2023-09-07T02:34:44;99333.25;;;15.02;95.56
9899;BME280;4988;49.238;6.698;2023-09-07T02:37:09;99334.09;;;14.88;96.35
9899;BME280;4988;49.238;6.698;2023-09-07T02:39:35;99340.53;;;14.86;97.05
9899;BME280;4988;49.238;6.698;2023-09-07T02:42:00;99327.19;;;14.84;96.48
9899;BME280;4988;49.238;6.698;2023-09-07T02:44:25;99335.53;;;14.79;96.12
9899;BME280;4988;49.238;6.698;2023-09-07T02:46:51;99331.81;;;14.82;97.63
9899;BME280;4988;49.238;6.698;2023-09-07T02:49:16;99331.97;;;14.79;96.10
9899;BME280;4988;49.238;6.698;2023-09-07T02:51:41;99333.94;;;14.61;97.00
9899;BME280;4988;49.238;6.698;2023-09-07T02:54:07;99334.88;;;14.60;97.58
9899;BME280;4988;49.238;6.698;2023-09-07T02:56:32;99332.47;;;14.55;97.51
9899;BME280;4988;49.238;6.698;2023-09-07T02:58:57;99330.97;;;14.35;98.44
9899;BME280;4988;49.238;6.698;2023-09-07T03:01:22;99338.06;;;14.20;99.62
9899;BME280;4988;49.238;6.698;2023-09-07T03:03:48;99337.06;;;14.23;100.00
9899;BME280;4988;49.238;6.698;2023-09-07T03:06:14;99322.31;;;14.30;100.00
9899;BME280;4988;49.238;6.698;2023-09-07T03:08:42;99336.69;;;14.29;99.92
9899;BME280;4988;49.238;6.698;2023-09-07T03:11:08;99329.25;;;14.34;100.00
9899;BME280;4988;49.238;6.698;2023-09-07T03:13:34;99330.09;;;14.35;99.14
9899;BME280;4988;49.238;6.698;2023-09-07T03:16:00;99338.22;;;14.33;98.15
9899;BME280;4988;49.238;6.698;2023-09-07T03:18:25;99333.59;;;14.21;98.10
9899;BME280;4988;49.238;6.698;2023-09-07T03:20:53;99328.91;;;14.24;97.24
9899;BME280;4988;49.238;6.698;2023-09-07T03:23:19;99334.38;;;14.23;98.32
9899;BME280;4988;49.238;6.698;2023-09-07T03:25:45;99327.69;;;14.30;99.49
9899;BME280;4988;49.238;6.698;2023-09-07T03:28:10;99325.00;;;14.30;98.31
9899;BME280;4988;49.238;6.698;2023-09-07T03:30:35;99326.47;;;14.36;98.86
9899;BME280;4988;49.238;6.698;2023-09-07T03:33:01;99326.47;;;14.36;98.60
9899;BME280;4988;49.238;6.698;2023-09-07T03:35:26;99334.03;;;14.43;96.58
9899;BME280;4988;49.238;6.698;2023-09-07T03:37:52;99334.81;;;14.45;96.73
9899;BME280;4988;49.238;6.698;2023-09-07T03:40:17;99336.34;;;14.50;97.93
9899;BME280;4988;49.238;6.698;2023-09-07T03:42:42;99336.28;;;14.51;96.77
9899;BME280;4988;49.238;6.698;2023-09-07T03:45:10;99343.81;;;14.44;95.81
9899;BME280;4988;49.238;6.698;2023-09-07T03:47:36;99349.09;;;14.30;96.30
9899;BME280;4988;49.238;6.698;2023-09-07T03:50:02;99347.25;;;14.16;97.61
9899;BME280;4988;49.238;6.698;2023-09-07T03:52:28;99343.88;;;13.96;98.59
9899;BME280;4988;49.238;6.698;2023-09-07T03:54:54;99343.97;;;13.95;98.87
9899;BME280;4988;49.238;6.698;2023-09-07T03:57:20;99344.41;;;14.03;98.94
9899;BME280;4988;49.238;6.698;2023-09-07T03:59:47;99341.91;;;14.00;98.63
9899;BME280;4988;49.238;6.698;2023-09-07T04:02:12;99340.34;;;13.96;98.41
9899;BME280;4988;49.238;6.698;2023-09-07T04:04:38;99351.56;;;14.03;97.78
9899;BME280;4988;49.238;6.698;2023-09-07T04:07:03;99346.75;;;13.93;97.88
9899;BME280;4988;49.238;6.698;2023-09-07T04:09:28;99351.22;;;13.93;98.03
9899;BME280;4988;49.238;6.698;2023-09-07T04:11:54;99353.19;;;14.05;95.95
9899;BME280;4988;49.238;6.698;2023-09-07T04:14:19;99347.50;;;14.11;96.68
9899;BME280;4988;49.238;6.698;2023-09-07T04:16:44;99350.16;;;14.11;96.47
9899;BME280;4988;49.238;6.698;2023-09-07T04:19:10;99345.16;;;14.05;97.74
9899;BME280;4988;49.238;6.698;2023-09-07T04:21:36;99354.56;;;14.12;96.38
9899;BME280;4988;49.238;6.698;2023-09-07T04:24:01;99354.66;;;14.27;96.10
9899;BME280;4988;49.238;6.698;2023-09-07T04:26:27;99354.13;;;14.20;96.13
9899;BME280;4988;49.238;6.698;2023-09-07T04:28:52;99357.16;;;14.14;97.52
9899;BME280;4988;49.238;6.698;2023-09-07T04:31:17;99360.88;;;14.11;97.37
9899;BME280;4988;49.238;6.698;2023-09-07T04:33:43;99361.22;;;14.05;97.04
9899;BME280;4988;49.238;6.698;2023-09-07T04:36:09;99360.19;;;13.92;96.51
9899;BME280;4988;49.238;6.698;2023-09-07T04:38:35;99360.19;;;14.08;95.67
9899;BME280;4988;49.238;6.698;2023-09-07T04:41:18;99363.56;;;13.79;96.09
9899;BME280;4988;49.238;6.698;2023-09-07T04:43:44;99365.03;;;13.69;96.96
9899;BME280;4988;49.238;6.698;2023-09-07T04:46:10;99363.50;;;13.65;98.13
9899;BME280;4988;49.238;6.698;2023-09-07T04:48:36;99356.22;;;13.67;97.90
9899;BME280;4988;49.238;6.698;2023-09-07T04:51:02;99370.19;;;13.72;97.57
9899;BME280;4988;49.238;6.698;2023-09-07T04:53:32;99368.31;;;13.74;96.61
9899;BME280;4988;49.238;6.698;2023-09-07T04:55:58;99364.19;;;13.85;96.20
9899;BME280;4988;49.238;6.698;2023-09-07T04:58:24;99375.75;;;13.85;95.53
9899;BME280;4988;49.238;6.698;2023-09-07T05:00:50;99364.19;;;13.85;96.91
9899;BME280;4988;49.238;6.698;2023-09-07T05:03:15;99370.22;;;13.88;96.90
9899;BME280;4988;49.238;6.698;2023-09-07T05:05:41;99375.75;;;13.85;97.31
9899;BME280;4988;49.238;6.698;2023-09-07T05:08:07;99375.31;;;13.93;95.92
9899;BME280;4988;49.238;6.698;2023-09-07T05:10:35;99371.09;;;13.89;97.45
9899;BME280;4988;49.238;6.698;2023-09-07T05:13:01;99363.66;;;13.94;97.76
9899;BME280;4988;49.238;6.698;2023-09-07T05:15:26;99367.97;;;13.96;96.85
9899;BME280;4988;49.238;6.698;2023-09-07T05:17:52;99365.03;;;14.01;96.15
9899;BME280;4988;49.238;6.698;2023-09-07T05:20:18;99373.88;;;14.03;95.27
9899;BME280;4988;49.238;6.698;2023-09-07T05:22:43;99372.88;;;14.04;95.92
9899;BME280;4988;49.238;6.698;2023-09-07T05:25:09;99366.94;;;13.99;96.05
9899;BME280;4988;49.238;6.698;2023-09-07T05:27:35;99369.59;;;13.99;95.46
9899;BME280;4988;49.238;6.698;2023-09-07T05:30:01;99369.81;;;13.96;96.06
9899;BME280;4988;49.238;6.698;2023-09-07T05:32:27;99367.72;;;14.01;96.64
9899;BME280;4988;49.238;6.698;2023-09-07T05:34:52;99365.03;;;14.01;96.90
9899;BME280;4988;49.238;6.698;2023-09-07T05:37:19;99370.19;;;14.04;97.12
9899;BME280;4988;49.238;6.698;2023-09-07T05:39:44;99372.63;;;14.09;97.01
9899;BME280;4988;49.238;6.698;2023-09-07T05:42:10;99378.16;;;14.22;96.24
9899;BME280;4988;49.238;6.698;2023-09-07T05:44:35;99386.69;;;14.28;96.06
9899;BME280;4988;49.238;6.698;2023-09-07T05:47:01;99378.66;;;14.28;96.53
9899;BME280;4988;49.238;6.698;2023-09-07T05:49:27;99383.19;;;14.42;95.45
9899;BME280;4988;49.238;6.698;2023-09-07T05:51:53;99377.91;;;14.57;95.29
9899;BME280;4988;49.238;6.698;2023-09-07T05:54:18;99372.38;;;14.60;94.35
9899;BME280;4988;49.238;6.698;2023-09-07T05:56:43;99381.38;;;14.59;94.88
9899;BME280;4988;49.238;6.698;2023-09-07T05:59:09;99383.28;;;14.57;94.70
9899;BME280;4988;49.238;6.698;2023-09-07T06:01:34;99386.72;;;14.59;94.07
9899;BME280;4988;49.238;6.698;2023-09-07T06:04:00;99389.56;;;14.56;94.28
9899;BME280;4988;49.238;6.698;2023-09-07T06:06:25;99389.31;;;14.60;94.15
9899;BME280;4988;49.238;6.698;2023-09-07T06:08:50;99385.78;;;14.60;95.01
9899;BME280;4988;49.238;6.698;2023-09-07T06:11:16;99384.31;;;14.70;96.31
9899;BME280;4988;49.238;6.698;2023-09-07T06:13:41;99380.31;;;14.77;97.56
9899;BME280;4988;49.238;6.698;2023-09-07T06:16:07;99382.13;;;14.77;98.37
9899;BME280;4988;49.238;6.698;2023-09-07T06:18:32;99379.25;;;14.80;98.93
9899;BME280;4988;49.238;6.698;2023-09-07T06:20:57;99384.94;;;14.90;99.11
9899;BME280;4988;49.238;6.698;2023-09-07T06:23:23;99385.63;;;14.93;99.35
9899;BME280;4988;49.238;6.698;2023-09-07T06:25:48;99384.56;;;14.96;99.52
9899;BME280;4988;49.238;6.698;2023-09-07T06:28:13;99384.19;;;15.02;100.00
9899;BME280;4988;49.238;6.698;2023-09-07T06:30:39;99383.66;;;15.11;100.00
9899;BME280;4988;49.238;6.698;2023-09-07T06:33:04;99385.94;;;15.18;100.00
9899;BME280;4988;49.238;6.698;2023-09-07T06:35:30;99387.28;;;15.25;100.00
9899;BME280;4988;49.238;6.698;2023-09-07T06:37:55;99396.19;;;15.25;100.00
9899;BME280;4988;49.238;6.698;2023-09-07T06:40:21;99398.59;;;15.16;100.00
9899;BME280;4988;49.238;6.698;2023-09-07T06:42:47;99400.59;;;15.12;100.00
9899;BME280;4988;49.238;6.698;2023-09-07T06:45:12;99398.69;;;15.14;100.00
9899;BME280;4988;49.238;6.698;2023-09-07T06:47:37;99392.63;;;15.25;100.00
9899;BME280;4988;49.238;6.698;2023-09-07T06:50:04;99402.81;;;15.49;100.00
9899;BME280;4988;49.238;6.698;2023-09-07T06:52:29;99393.72;;;15.66;100.00
9899;BME280;4988;49.238;6.698;2023-09-07T06:54:55;99395.94;;;15.88;100.00
9899;BME280;4988;49.238;6.698;2023-09-07T06:57:20;99404.59;;;16.06;100.00
9899;BME280;4988;49.238;6.698;2023-09-07T06:59:46;99403.53;;;16.23;100.00
9899;BME280;4988;49.238;6.698;2023-09-07T07:02:11;99408.97;;;16.36;100.00
9899;BME280;4988;49.238;6.698;2023-09-07T07:04:36;99409.25;;;16.59;100.00
9899;BME280;4988;49.238;6.698;2023-09-07T07:07:02;99407.16;;;16.77;98.53
9899;BME280;4988;49.238;6.698;2023-09-07T07:09:32;99408.81;;;16.92;97.26
9899;BME280;4988;49.238;6.698;2023-09-07T07:12:02;99406.81;;;17.09;96.57
9899;BME280;4988;49.238;6.698;2023-09-07T07:14:27;99402.53;;;17.19;96.05
9899;BME280;4988;49.238;6.698;2023-09-07T07:16:53;99392.81;;;17.29;96.07
9899;BME280;4988;49.238;6.698;2023-09-07T07:19:18;99402.53;;;17.45;95.70
9899;BME280;4988;49.238;6.698;2023-09-07T07:21:44;99402.41;;;17.59;95.76
9899;BME280;4988;49.238;6.698;2023-09-07T07:24:09;99409.63;;;17.72;94.57
9899;BME280;4988;49.238;6.698;2023-09-07T07:26:35;99402.25;;;17.87;92.79
9899;BME280;4988;49.238;6.698;2023-09-07T07:29:01;99409.69;;;17.96;92.65
9899;BME280;4988;49.238;6.698;2023-09-07T07:31:28;99417.00;;;18.07;93.40
9899;BME280;4988;49.238;6.698;2023-09-07T07:33:54;99407.81;;;18.22;93.27
9899;BME280;4988;49.238;6.698;2023-09-07T07:36:20;99402.47;;;18.33;91.83
9899;BME280;4988;49.238;6.698;2023-09-07T07:38:45;99399.72;;;18.46;91.26
9899;BME280;4988;49.238;6.698;2023-09-07T07:41:11;99403.13;;;18.61;90.36
9899;BME280;4988;49.238;6.698;2023-09-07T07:43:36;99400.22;;;18.76;90.41
9899;BME280;4988;49.238;6.698;2023-09-07T07:46:01;99398.81;;;18.94;90.13
9899;BME280;4988;49.238;6.698;2023-09-07T07:48:27;99397.66;;;19.10;89.59
9899;BME280;4988;49.238;6.698;2023-09-07T07:50:54;99400.78;;;19.28;89.07
9899;BME280;4988;49.238;6.698;2023-09-07T07:53:19;99399.44;;;19.45;85.78
9899;BME280;4988;49.238;6.698;2023-09-07T07:55:45;99395.66;;;19.59;84.80
9899;BME280;4988;49.238;6.698;2023-09-07T07:58:10;99398.94;;;19.74;84.46
9899;BME280;4988;49.238;6.698;2023-09-07T08:00:37;99394.06;;;19.90;83.47
9899;BME280;4988;49.238;6.698;2023-09-07T08:03:03;99397.09;;;20.08;81.85
9899;BME280;4988;49.238;6.698;2023-09-07T08:05:29;99397.06;;;20.20;82.16
9899;BME280;4988;49.238;6.698;2023-09-07T08:07:56;99395.22;;;20.32;80.45
9899;BME280;4988;49.238;6.698;2023-09-07T08:10:21;99395.91;;;20.45;80.63
9899;BME280;4988;49.238;6.698;2023-09-07T08:12:46;99394.50;;;20.62;80.44
9899;BME280;4988;49.238;6.698;2023-09-07T08:15:12;99389.69;;;20.77;79.88
9899;BME280;4988;49.238;6.698;2023-09-07T08:17:37;99383.81;;;20.93;78.36
9899;BME280;4988;49.238;6.698;2023-09-07T08:20:02;99381.63;;;21.08;75.97
9899;BME280;4988;49.238;6.698;2023-09-07T08:22:28;99388.84;;;21.19;76.58
9899;BME280;4988;49.238;6.698;2023-09-07T08:24:54;99384.94;;;21.33;77.26
9899;BME280;4988;49.238;6.698;2023-09-07T08:27:20;99381.88;;;21.47;76.25
9899;BME280;4988;49.238;6.698;2023-09-07T08:29:46;99383.97;;;21.65;76.92
9899;BME280;4988;49.238;6.698;2023-09-07T08:32:13;99378.19;;;21.79;73.64
9899;BME280;4988;49.238;6.698;2023-09-07T08:34:39;99381.53;;;21.93;71.61
9899;BME280;4988;49.238;6.698;2023-09-07T08:37:06;99376.13;;;22.03;69.56
9899;BME280;4988;49.238;6.698;2023-09-07T08:39:36;99383.25;;;22.13;69.48
9899;BME280;4988;49.238;6.698;2023-09-07T08:42:04;99386.59;;;22.27;69.02
9899;BME280;4988;49.238;6.698;2023-09-07T08:44:32;99375.38;;;22.41;68.70
9899;BME280;4988;49.238;6.698;2023-09-07T08:46:59;99374.78;;;22.47;68.06
9899;BME280;4988;49.238;6.698;2023-09-07T08:49:25;99377.66;;;22.56;66.82
9899;BME280;4988;49.238;6.698;2023-09-07T08:51:53;99377.78;;;22.64;66.62
9899;BME280;4988;49.238;6.698;2023-09-07T08:54:19;99378.50;;;22.66;66.94
9899;BME280;4988;49.238;6.698;2023-09-07T08:56:45;99377.94;;;22.72;66.64
9899;BME280;4988;49.238;6.698;2023-09-07T08:59:10;99375.38;;;22.80;68.00
9899;BME280;4988;49.238;6.698;2023-09-07T09:01:36;99372.50;;;22.92;66.77
9899;BME280;4988;49.238;6.698;2023-09-07T09:04:02;99373.06;;;23.05;69.19
9899;BME280;4988;49.238;6.698;2023-09-07T09:06:27;99376.34;;;23.19;66.71
9899;BME280;4988;49.238;6.698;2023-09-07T09:08:55;99370.47;;;23.33;65.17
9899;BME280;4988;49.238;6.698;2023-09-07T09:11:22;99371.28;;;23.43;65.25
9899;BME280;4988;49.238;6.698;2023-09-07T09:13:48;99372.69;;;23.48;65.24
9899;BME280;4988;49.238;6.698;2023-09-07T09:16:14;99374.81;;;23.54;65.62
9899;BME280;4988;49.238;6.698;2023-09-07T09:18:53;99380.94;;;23.66;66.09
9899;BME280;4988;49.238;6.698;2023-09-07T09:21:23;99372.91;;;23.74;64.32
9899;BME280;4988;49.238;6.698;2023-09-07T09:23:51;99373.41;;;23.87;65.73
9899;BME280;4988;49.238;6.698;2023-09-07T09:26:17;99375.41;;;23.95;64.84
9899;BME280;4988;49.238;6.698;2023-09-07T09:28:43;99371.75;;;24.04;62.26
9899;BME280;4988;49.238;6.698;2023-09-07T09:31:12;99370.59;;;24.07;61.38
9899;BME280;4988;49.238;6.698;2023-09-07T09:33:38;99363.75;;;24.03;62.17
9899;BME280;4988;49.238;6.698;2023-09-07T09:36:05;99364.13;;;24.08;62.21
9899;BME280;4988;49.238;6.698;2023-09-07T09:38:31;99368.97;;;24.14;64.99
9899;BME280;4988;49.238;6.698;2023-09-07T09:40:57;99359.28;;;24.30;63.89
9899;BME280;4988;49.238;6.698;2023-09-07T09:43:24;99357.88;;;24.44;64.10
9899;BME280;4988;49.238;6.698;2023-09-07T09:45:50;99358.34;;;24.57;62.16
9899;BME280;4988;49.238;6.698;2023-09-07T09:48:19;99362.91;;;24.66;61.15
9899;BME280;4988;49.238;6.698;2023-09-07T09:50:46;99363.66;;;24.77;61.03
9899;BME280;4988;49.238;6.698;2023-09-07T09:53:14;99353.69;;;24.85;61.26
9899;BME280;4988;49.238;6.698;2023-09-07T09:55:47;99350.03;;;24.95;59.41
9899;BME280;4988;49.238;6.698;2023-09-07T09:58:13;99353.31;;;24.98;59.24
9899;BME280;4988;49.238;6.698;2023-09-07T10:00:41;99352.50;;;25.06;60.07
9899;BME280;4988;49.238;6.698;2023-09-07T10:03:09;99352.56;;;25.14;61.13
9899;BME280;4988;49.238;6.698;2023-09-07T10:05:38;99344.97;;;25.26;60.35
9899;BME280;4988;49.238;6.698;2023-09-07T10:08:11;99346.03;;;25.33;59.75
9899;BME280;4988;49.238;6.698;2023-09-07T10:10:37;99343.00;;;25.36;57.75
9899;BME280;4988;49.238;6.698;2023-09-07T10:13:04;99342.38;;;25.43;59.08
9899;BME280;4988;49.238;6.698;2023-09-07T10:15:30;99337.31;;;25.48;60.15
9899;BME280;4988;49.238;6.698;2023-09-07T10:18:13;99340.22;;;25.55;57.68
9899;BME280;4988;49.238;6.698;2023-09-07T10:20:56;99337.34;;;25.56;58.24
9899;BME280;4988;49.238;6.698;2023-09-07T10:23:35;99336.34;;;25.65;60.31
9899;BME280;4988;49.238;6.698;2023-09-07T10:26:02;99335.53;;;25.73;59.12
9899;BME280;4988;49.238;6.698;2023-09-07T10:28:29;99333.31;;;25.77;57.52
9899;BME280;4988;49.238;6.698;2023-09-07T10:30:59;99323.47;;;25.84;57.29
9899;BME280;4988;49.238;6.698;2023-09-07T10:33:25;99323.34;;;25.94;57.14
9899;BME280;4988;49.238;6.698;2023-09-07T10:35:51;99331.09;;;26.07;56.04
9899;BME280;4988;49.238;6.698;2023-09-07T10:38:16;99319.13;;;26.08;55.84
9899;BME280;4988;49.238;6.698;2023-09-07T10:40:45;99318.97;;;26.17;56.26
9899;BME280;4988;49.238;6.698;2023-09-07T10:43:13;99319.16;;;26.16;56.39
9899;BME280;4988;49.238;6.698;2023-09-07T10:45:38;99318.84;;;26.19;57.30
9899;BME280;4988;49.238;6.698;2023-09-07T10:48:05;99314.06;;;26.21;56.24
9899;BME280;4988;49.238;6.698;2023-09-07T10:50:42;99311.69;;;26.26;54.77
9899;BME280;4988;49.238;6.698;2023-09-07T10:53:07;99309.81;;;26.27;55.20
9899;BME280;4988;49.238;6.698;2023-09-07T10:55:37;99312.19;;;26.30;55.85
9899;BME280;4988;49.238;6.698;2023-09-07T10:58:04;99315.44;;;26.33;56.65
9899;BME280;4988;49.238;6.698;2023-09-07T11:00:29;99313.41;;;26.36;55.37
9899;BME280;4988;49.238;6.698;2023-09-07T11:02:54;99308.28;;;26.41;55.08
9899;BME280;4988;49.238;6.698;2023-09-07T11:05:20;99312.03;;;26.40;55.94
9899;BME280;4988;49.238;6.698;2023-09-07T11:07:45;99313.41;;;26.44;56.31
9899;BME280;4988;49.238;6.698;2023-09-07T11:10:10;99307.94;;;26.52;55.40
9899;BME280;4988;49.238;6.698;2023-09-07T11:12:37;99305.22;;;26.52;56.17
9899;BME280;4988;49.238;6.698;2023-09-07T11:15:04;99315.44;;;26.58;58.04
9899;BME280;4988;49.238;6.698;2023-09-07T11:17:29;99309.66;;;26.61;56.72
9899;BME280;4988;49.238;6.698;2023-09-07T11:19:55;99296.34;;;26.58;54.82
9899;BME280;4988;49.238;6.698;2023-09-07T11:22:21;99309.50;;;26.55;56.80
9899;BME280;4988;49.238;6.698;2023-09-07T11:24:47;99309.97;;;26.58;55.49
9899;BME280;4988;49.238;6.698;2023-09-07T11:27:12;99303.00;;;26.64;59.05
9899;BME280;4988;49.238;6.698;2023-09-07T11:29:38;99305.41;;;26.75;54.77
9899;BME280;4988;49.238;6.698;2023-09-07T11:32:08;99300.81;;;26.76;56.11
9899;BME280;4988;49.238;6.698;2023-09-07T11:34:34;99298.59;;;26.79;55.75
9899;BME280;4988;49.238;6.698;2023-09-07T11:37:02;99303.53;;;26.84;55.09
9899;BME280;4988;49.238;6.698;2023-09-07T11:39:27;99302.00;;;26.81;54.67
9899;BME280;4988;49.238;6.698;2023-09-07T11:41:53;99305.22;;;26.85;55.46
9899;BME280;4988;49.238;6.698;2023-09-07T11:44:18;99293.09;;;26.88;54.56
9899;BME280;4988;49.238;6.698;2023-09-07T11:46:43;99298.06;;;26.92;55.70
9899;BME280;4988;49.238;6.698;2023-09-07T11:49:09;99301.47;;;26.94;55.53
9899;BME280;4988;49.238;6.698;2023-09-07T11:51:34;99293.78;;;26.98;55.45
9899;BME280;4988;49.238;6.698;2023-09-07T11:54:02;99296.00;;;27.03;54.96
9899;BME280;4988;49.238;6.698;2023-09-07T11:56:27;99293.94;;;27.05;56.46
9899;BME280;4988;49.238;6.698;2023-09-07T11:58:53;99292.03;;;27.13;55.49
9899;BME280;4988;49.238;6.698;2023-09-07T12:01:18;99288.09;;;27.16;54.01
9899;BME280;4988;49.238;6.698;2023-09-07T12:03:44;99293.22;;;27.19;54.06
9899;BME280;4988;49.238;6.698;2023-09-07T12:06:09;99294.44;;;27.25;56.70
9899;BME280;4988;49.238;6.698;2023-09-07T12:08:36;99291.50;;;27.26;55.76
9899;BME280;4988;49.238;6.698;2023-09-07T12:11:01;99290.50;;;27.27;54.41
9899;BME280;4988;49.238;6.698;2023-09-07T12:13:26;99286.88;;;27.27;54.17
9899;BME280;4988;49.238;6.698;2023-09-07T12:15:52;99280.91;;;27.23;54.16
9899;BME280;4988;49.238;6.698;2023-09-07T12:18:17;99281.94;;;27.22;54.36
9899;BME280;4988;49.238;6.698;2023-09-07T12:20:42;99274.78;;;27.21;54.45
9899;BME280;4988;49.238;6.698;2023-09-07T12:23:09;99284.84;;;27.29;54.37
9899;BME280;4988;49.238;6.698;2023-09-07T12:25:35;99279.88;;;27.33;53.44
9899;BME280;4988;49.238;6.698;2023-09-07T12:28:01;99269.97;;;27.32;54.34
9899;BME280;4988;49.238;6.698;2023-09-07T12:30:27;99284.13;;;27.35;54.26
9899;BME280;4988;49.238;6.698;2023-09-07T12:32:53;99274.53;;;27.39;53.45
9899;BME280;4988;49.238;6.698;2023-09-07T12:35:18;99273.38;;;27.42;53.51
9899;BME280;4988;49.238;6.698;2023-09-07T12:37:45;99272.84;;;27.47;53.54
9899;BME280;4988;49.238;6.698;2023-09-07T12:40:11;99270.59;;;27.50;52.66
9899;BME280;4988;49.238;6.698;2023-09-07T12:42:42;99271.63;;;27.49;52.86
9899;BME280;4988;49.238;6.698;2023-09-07T12:45:11;99274.72;;;27.46;53.93
9899;BME280;4988;49.238;6.698;2023-09-07T12:47:38;99276.25;;;27.49;55.35
9899;BME280;4988;49.238;6.698;2023-09-07T12:50:04;99280.16;;;27.54;54.32
9899;BME280;4988;49.238;6.698;2023-09-07T12:52:30;99267.34;;;27.55;52.99
9899;BME280;4988;49.238;6.698;2023-09-07T12:54:55;99275.66;;;27.61;52.76
9899;BME280;4988;49.238;6.698;2023-09-07T12:57:21;99268.34;;;27.62;53.51
9899;BME280;4988;49.238;6.698;2023-09-07T12:59:46;99266.09;;;27.66;52.98
9899;BME280;4988;49.238;6.698;2023-09-07T13:02:11;99263.19;;;27.67;53.14
9899;BME280;4988;49.238;6.698;2023-09-07T13:04:37;99267.06;;;27.73;53.77
9899;BME280;4988;49.238;6.698;2023-09-07T13:07:02;99256.13;;;27.73;51.48
9899;BME280;4988;49.238;6.698;2023-09-07T13:09:28;99258.22;;;27.71;52.17
9899;BME280;4988;49.238;6.698;2023-09-07T13:11:53;99258.22;;;27.71;52.27
9899;BME280;4988;49.238;6.698;2023-09-07T13:14:18;99244.16;;;27.74;52.24
9899;BME280;4988;49.238;6.698;2023-09-07T13:16:44;99247.69;;;27.83;52.46